Meteo Giornale » Osservazioni meteo Egitto » El Arish
ore: 21:00 - Osservazioni Meteo El Arish
Lat. 31° 5' N Lon. 33° 49' E Alt. 31 metri s.l.m.
27 °C
Sereno
Temp. 24 Ore
22 °C
33 °C
Nord/NOvest
11.1 Km/h
Dew point 22 °C
Umidità 74 %
Visibilità 10 Km
Il sole sorge alle ore 06:20
Il sole tramonta alle ore 19:08
| Data e Ora | Cielo e Fenomeni | T °C | DP °C | Um. % | Pres. hPa | Vis. km | Vento km/h | |
|---|---|---|---|---|---|---|---|---|
| Oggi h: 21:00 | Sereno | 27 | 22 | 74 | 1010 | 10 | N/NO 11.1 | |
| Oggi h: 20:00 | Sereno | 27 | 22 | 74 | 1010 | 10 | N/NO 14.8 | |
| Oggi h: 19:00 | Sereno | 29 | 22 | 66 | 1010 | 10 | N/NO 18.5 | |
| Oggi h: 18:00 | Sereno | 30 | 22 | 62 | 1009 | 10 | N/NO 18.5 | |
| Oggi h: 17:00 | Sereno | 30 | 23 | 66 | 1009 | 10 | NO 14.8 | |
| Oggi h: 16:00 | Sereno | 31 | 23 | 62 | 1009 | 10 | NO 18.5 | |
| Oggi h: 15:00 | Sereno | 31 | 23 | 62 | 1010 | 10 | NO 18.5 | |
| Oggi h: 14:00 | Sereno | 33 | 22 | 52 | 1010 | 10 | O/NO 11.1 | |
| Oggi h: 13:00 | Sereno | 33 | 21 | 49 | 1010 | 10 | O 9.3 | |
| Oggi h: 12:00 | Sereno | 32 | 21 | 52 | 1010 | 10 | O/NO 9.3 | |
| Oggi h: 11:00 | Sereno | 31 | 19 | 48 | 1010 | 10 | S/SE 9.3 | |
| Oggi h: 10:00 | Sereno | 30 | 18 | 48 | 1011 | 10 | S/SE 7.4 | |
| Oggi h: 09:00 | Sereno | 29 | 18 | 51 | 1010 | 10 | SE 9.3 | |
| Oggi h: 08:00 | Sereno | 26 | 20 | 69 | 1010 | 10 | S 9.3 | |
| Oggi h: 07:00 | Sereno | 24 | 19 | 73 | 1010 | 10 | S 9.3 | |
| Oggi h: 06:00 | Sereno | 22 | 18 | 78 | 1009 | 10 | S 7.4 | |
| Oggi h: 05:00 | Sereno | 22 | 19 | 83 | 1010 | 10 | N 3.7 | |
| Oggi h: 04:00 | Sereno | 23 | 19 | 78 | 1009 | 10 | N 0 | |
| Oggi h: 03:00 | Sereno | 23 | 19 | 78 | 1009 | 10 | N 5.5 | |
| Oggi h: 02:00 | Sereno | 24 | 20 | 78 | 1010 | 10 | N 0 | |
| Oggi h: 01:00 | Sereno | 25 | 19 | 69 | 1010 | 10 | N 0 | |
| Oggi h: 00:00 | Sereno | 25 | 20 | 73 | 1010 | 10 | N 5.5 | |
| Ieri h: 23:00 | Sereno | 26 | 21 | 73 | 1009 | 10 | N 11.1 | |
| Ieri h: 22:00 | Sereno | 27 | 21 | 69 | 1010 | 10 | N 11.1 | |



